Terminal Aerodrome Forecast
Issued by NWS New Orleans/Baton Rouge, LA

Home | Current Version | Previous Version | Text Only | Print | Product List | Glossary On
Versions: 1 2 3 4 5 6 7 8 9 10 11 12 13 14 15 16 17 18 19 20 21 22 23 24 25 26 27 28 29 30 31 32
000
FTUS44 KLIX 171100
TAFNEW
TAF
KNEW 171136Z 1712/1812 02005KT P6SM SCT035
     FM171900 18006KT P6SM VCSH BKN035
     FM180000 21005KT P6SM BKN035
     FM180700 27004KT P6SM BKN035=

USA.gov is the U.S. government's official web portal to all federal, state and local government web resources and services.